AAL36PF KSFO-KSAN
Flight info
| Callsign | AAL36PF |
|---|---|
| Flight time | 1h 7m |
| Altitude | 35000 |
| Route | WESLA5 YYUNG LAX COMIX2 |
| Aircraft | A320/M-SDE3FGHIRWY/LB1 |
Departure
| Time | 2026-04-23 10:54 |
|---|---|
| Airport | San Francisco International Airport (KSFO) |
Arrival
| Time | 2026-04-23 12:01 |
|---|---|
| Airport | San Diego International Airport (KSAN) |
| Time | Latitude | Longitude | Altitude | Speed | Heading |
|---|---|---|---|---|---|
| 2026-04-23 10:12 | 37.61380 | -122.38651 | 22 ft | 0 kts | 31° |
| 2026-04-23 10:31 | 37.61379 | -122.38652 | 22 ft | 2 kts | 31° |
| 2026-04-23 10:31 | 37.61357 | -122.38666 | 23 ft | 4 kts | 15° |
| 2026-04-23 10:31 | 37.61330 | -122.38671 | 23 ft | 4 kts | 358° |
| 2026-04-23 10:31 | 37.61303 | -122.38668 | 23 ft | 4 kts | 353° |
| 2026-04-23 10:32 | 37.61278 | -122.38667 | 22 ft | 3 kts | 24° |
| 2026-04-23 10:32 | 37.61276 | -122.38669 | 22 ft | 0 kts | 27° |
| 2026-04-23 10:39 | 37.61278 | -122.38667 | 22 ft | 2 kts | 28° |
| 2026-04-23 10:39 | 37.61311 | -122.38668 | 24 ft | 8 kts | 338° |
| 2026-04-23 10:39 | 37.61303 | -122.38727 | 24 ft | 11 kts | 208° |
| 2026-04-23 10:39 | 37.61226 | -122.38777 | 23 ft | 13 kts | 208° |
| 2026-04-23 10:40 | 37.61142 | -122.38834 | 22 ft | 14 kts | 208° |
| 2026-04-23 10:40 | 37.61047 | -122.38882 | 22 ft | 15 kts | 174° |
| 2026-04-23 10:40 | 37.60976 | -122.38790 | 22 ft | 15 kts | 115° |
| 2026-04-23 10:40 | 37.60928 | -122.38670 | 22 ft | 16 kts | 119° |
| 2026-04-23 10:41 | 37.60882 | -122.38543 | 22 ft | 16 kts | 96° |
| 2026-04-23 10:41 | 37.60945 | -122.38440 | 22 ft | 15 kts | 81° |
| 2026-04-23 10:41 | 37.60894 | -122.38320 | 23 ft | 16 kts | 122° |
| 2026-04-23 10:41 | 37.60866 | -122.38185 | 22 ft | 16 kts | 106° |
| 2026-04-23 10:42 | 37.60815 | -122.38053 | 22 ft | 17 kts | 118° |
| 2026-04-23 10:42 | 37.60759 | -122.37917 | 22 ft | 18 kts | 118° |
| 2026-04-23 10:42 | 37.60797 | -122.37801 | 22 ft | 17 kts | 26° |
| 2026-04-23 10:42 | 37.60906 | -122.37728 | 22 ft | 18 kts | 28° |
| 2026-04-23 10:43 | 37.61022 | -122.37651 | 22 ft | 19 kts | 29° |
| 2026-04-23 10:43 | 37.61146 | -122.37569 | 22 ft | 21 kts | 25° |
| 2026-04-23 10:43 | 37.61276 | -122.37483 | 22 ft | 22 kts | 28° |
| 2026-04-23 10:43 | 37.61415 | -122.37393 | 23 ft | 23 kts | 27° |
| 2026-04-23 10:44 | 37.61533 | -122.37291 | 22 ft | 20 kts | 52° |
| 2026-04-23 10:44 | 37.61552 | -122.37116 | 22 ft | 22 kts | 109° |
| 2026-04-23 10:44 | 37.61480 | -122.36942 | 22 ft | 19 kts | 118° |
| 2026-04-23 10:44 | 37.61388 | -122.36811 | 22 ft | 21 kts | 135° |
| 2026-04-23 10:45 | 37.61307 | -122.36642 | 22 ft | 24 kts | 117° |
| 2026-04-23 10:45 | 37.61225 | -122.36447 | 23 ft | 27 kts | 118° |
| 2026-04-23 10:45 | 37.61138 | -122.36240 | 22 ft | 20 kts | 118° |
| 2026-04-23 10:45 | 37.61073 | -122.36087 | 24 ft | 17 kts | 117° |
| 2026-04-23 10:46 | 37.61054 | -122.35967 | 22 ft | 11 kts | 73° |
| 2026-04-23 10:46 | 37.61093 | -122.35910 | 24 ft | 0 kts | 29° |
| 2026-04-23 10:49 | 37.61113 | -122.35896 | 23 ft | 8 kts | 26° |
| 2026-04-23 10:49 | 37.61182 | -122.35874 | 22 ft | 12 kts | 332° |
| 2026-04-23 10:50 | 37.61193 | -122.35893 | 23 ft | 0 kts | 297° |
| 2026-04-23 10:53 | 37.61198 | -122.35903 | 24 ft | 7 kts | 298° |
| 2026-04-23 10:53 | 37.61324 | -122.36202 | 22 ft | 74 kts | 298° |
| 2026-04-23 10:53 | 37.61661 | -122.37005 | 23 ft | 130 kts | 298° |
| 2026-04-23 10:53 | 37.62138 | -122.38154 | 269 ft | 152 kts | 297° |
| 2026-04-23 10:54 | 37.62624 | -122.39336 | 912 ft | 152 kts | 300° |
| 2026-04-23 10:54 | 37.63153 | -122.40490 | 1547 ft | 152 kts | 300° |
| 2026-04-23 10:54 | 37.63660 | -122.41659 | 2143 ft | 153 kts | 300° |
| 2026-04-23 10:54 | 37.64180 | -122.42850 | 2653 ft | 156 kts | 300° |
| 2026-04-23 10:55 | 37.64708 | -122.44069 | 3179 ft | 160 kts | 300° |
| 2026-04-23 10:55 | 37.65272 | -122.45369 | 3462 ft | 181 kts | 300° |
| 2026-04-23 10:55 | 37.65914 | -122.46834 | 3805 ft | 201 kts | 301° |
| 2026-04-23 10:55 | 37.66630 | -122.48476 | 4049 ft | 228 kts | 297° |
| 2026-04-23 10:56 | 37.66878 | -122.50552 | 4402 ft | 258 kts | 259° |
| 2026-04-23 10:56 | 37.66001 | -122.52582 | 5039 ft | 274 kts | 223° |
| 2026-04-23 10:56 | 37.64306 | -122.53673 | 5877 ft | 280 kts | 189° |
| 2026-04-23 10:56 | 37.62368 | -122.53474 | 6772 ft | 283 kts | 162° |
| 2026-04-23 10:57 | 37.60544 | -122.52571 | 7616 ft | 286 kts | 155° |
| 2026-04-23 10:57 | 37.58723 | -122.51519 | 8498 ft | 289 kts | 155° |
| 2026-04-23 10:57 | 37.56882 | -122.50455 | 9357 ft | 293 kts | 155° |
| 2026-04-23 10:57 | 37.55017 | -122.49379 | 10180 ft | 298 kts | 156° |
| 2026-04-23 10:58 | 37.53003 | -122.48434 | 10478 ft | 321 kts | 163° |
| 2026-04-23 10:58 | 37.50788 | -122.47701 | 10900 ft | 335 kts | 169° |
| 2026-04-23 10:58 | 37.48449 | -122.47522 | 11549 ft | 339 kts | 185° |
| 2026-04-23 10:58 | 37.46110 | -122.47980 | 12263 ft | 342 kts | 192° |
| 2026-04-23 10:59 | 37.43750 | -122.48509 | 12994 ft | 346 kts | 191° |
| 2026-04-23 10:59 | 37.41355 | -122.48972 | 13726 ft | 350 kts | 190° |
| 2026-04-23 10:59 | 37.38970 | -122.49399 | 14414 ft | 352 kts | 189° |
| 2026-04-23 10:59 | 37.36533 | -122.49824 | 15061 ft | 355 kts | 190° |
| 2026-04-23 11:00 | 37.34075 | -122.50255 | 15685 ft | 358 kts | 191° |
| 2026-04-23 11:00 | 37.31590 | -122.50698 | 16300 ft | 362 kts | 191° |
| 2026-04-23 11:00 | 37.29087 | -122.51153 | 16919 ft | 366 kts | 192° |
| 2026-04-23 11:00 | 37.26554 | -122.51623 | 17536 ft | 369 kts | 192° |
| 2026-04-23 11:01 | 37.24002 | -122.52099 | 18159 ft | 373 kts | 193° |
| 2026-04-23 11:01 | 37.21421 | -122.52581 | 18742 ft | 376 kts | 193° |
| 2026-04-23 11:01 | 37.18818 | -122.53067 | 19288 ft | 379 kts | 193° |
| 2026-04-23 11:01 | 37.16203 | -122.53553 | 19908 ft | 381 kts | 193° |
| 2026-04-23 11:02 | 37.13573 | -122.54042 | 20495 ft | 384 kts | 193° |
| 2026-04-23 11:02 | 37.10922 | -122.54531 | 21059 ft | 387 kts | 194° |
| 2026-04-23 11:02 | 37.08245 | -122.55018 | 21607 ft | 390 kts | 194° |
| 2026-04-23 11:02 | 37.05543 | -122.55499 | 22152 ft | 394 kts | 192° |
| 2026-04-23 11:03 | 37.02771 | -122.55588 | 22684 ft | 404 kts | 181° |
| 2026-04-23 11:03 | 36.99994 | -122.55051 | 23216 ft | 414 kts | 171° |
| 2026-04-23 11:03 | 36.97241 | -122.53833 | 23743 ft | 425 kts | 159° |
| 2026-04-23 11:03 | 36.94634 | -122.52014 | 24180 ft | 432 kts | 154° |
| 2026-04-23 11:04 | 36.92042 | -122.50087 | 24604 ft | 435 kts | 154° |
| 2026-04-23 11:04 | 36.89442 | -122.48170 | 25022 ft | 438 kts | 155° |
| 2026-04-23 11:04 | 36.86804 | -122.46234 | 25430 ft | 441 kts | 155° |
| 2026-04-23 11:04 | 36.84138 | -122.44282 | 25842 ft | 444 kts | 155° |
| 2026-04-23 11:05 | 36.81461 | -122.42328 | 26237 ft | 447 kts | 155° |
| 2026-04-23 11:05 | 36.78765 | -122.40360 | 26609 ft | 451 kts | 156° |
| 2026-04-23 11:05 | 36.76051 | -122.38377 | 26989 ft | 454 kts | 156° |
| 2026-04-23 11:05 | 36.73319 | -122.36379 | 27374 ft | 457 kts | 156° |
| 2026-04-23 11:06 | 36.67799 | -122.32343 | 28107 ft | 463 kts | 156° |
| 2026-04-23 11:06 | 36.65010 | -122.30302 | 28473 ft | 466 kts | 156° |
| 2026-04-23 11:06 | 36.62209 | -122.28254 | 28821 ft | 469 kts | 156° |
| 2026-04-23 11:07 | 36.59391 | -122.26196 | 29185 ft | 471 kts | 156° |
| 2026-04-23 11:07 | 36.56546 | -122.24124 | 29556 ft | 474 kts | 156° |
| 2026-04-23 11:07 | 36.53726 | -122.22077 | 29911 ft | 476 kts | 156° |
| 2026-04-23 11:07 | 36.50816 | -122.19969 | 30279 ft | 479 kts | 157° |
| 2026-04-23 11:08 | 36.47928 | -122.17881 | 30578 ft | 482 kts | 157° |
| 2026-04-23 11:08 | 36.45027 | -122.15786 | 30882 ft | 483 kts | 156° |
| 2026-04-23 11:08 | 36.42154 | -122.13706 | 31202 ft | 485 kts | 156° |
| 2026-04-23 11:08 | 36.39231 | -122.11587 | 31546 ft | 485 kts | 156° |
| 2026-04-23 11:09 | 36.36328 | -122.09477 | 31994 ft | 484 kts | 157° |
| 2026-04-23 11:09 | 36.33426 | -122.07368 | 32458 ft | 482 kts | 157° |
| 2026-04-23 11:09 | 36.30534 | -122.05269 | 32876 ft | 482 kts | 157° |
| 2026-04-23 11:09 | 36.27645 | -122.03179 | 33295 ft | 480 kts | 157° |
| 2026-04-23 11:10 | 36.24762 | -122.01102 | 33766 ft | 478 kts | 158° |
| 2026-04-23 11:10 | 36.21885 | -121.99034 | 34226 ft | 477 kts | 158° |
| 2026-04-23 11:10 | 36.19016 | -121.96974 | 34620 ft | 475 kts | 158° |
| 2026-04-23 11:10 | 36.16163 | -121.94925 | 35009 ft | 474 kts | 158° |
| 2026-04-23 11:11 | 36.13311 | -121.92875 | 35156 ft | 473 kts | 158° |
| 2026-04-23 11:11 | 36.07668 | -121.88816 | 35173 ft | 467 kts | 158° |
| 2026-04-23 11:12 | 36.02084 | -121.84728 | 35175 ft | 470 kts | 153° |
| 2026-04-23 11:12 | 35.99512 | -121.82159 | 35174 ft | 480 kts | 142° |
| 2026-04-23 11:12 | 35.97310 | -121.79086 | 35187 ft | 489 kts | 133° |
| 2026-04-23 11:13 | 35.93170 | -121.72408 | 35179 ft | 489 kts | 133° |
| 2026-04-23 11:13 | 35.89011 | -121.65775 | 35170 ft | 488 kts | 134° |
| 2026-04-23 11:14 | 35.84829 | -121.59169 | 35180 ft | 488 kts | 134° |
| 2026-04-23 11:14 | 35.80650 | -121.52574 | 35165 ft | 488 kts | 134° |
| 2026-04-23 11:15 | 35.76490 | -121.45981 | 35183 ft | 489 kts | 134° |
| 2026-04-23 11:15 | 35.72316 | -121.39375 | 35188 ft | 488 kts | 134° |
| 2026-04-23 11:16 | 35.68134 | -121.32783 | 35181 ft | 488 kts | 134° |
| 2026-04-23 11:16 | 35.63951 | -121.26217 | 35176 ft | 487 kts | 134° |
| 2026-04-23 11:17 | 35.59791 | -121.19696 | 35188 ft | 487 kts | 134° |
| 2026-04-23 11:17 | 35.55611 | -121.13136 | 35192 ft | 487 kts | 134° |
| 2026-04-23 11:18 | 35.51430 | -121.06582 | 35169 ft | 487 kts | 134° |
| 2026-04-23 11:18 | 35.47412 | -120.99913 | 35179 ft | 489 kts | 130° |
| 2026-04-23 11:19 | 35.43533 | -120.93042 | 35190 ft | 489 kts | 130° |
| 2026-04-23 11:19 | 35.39641 | -120.86184 | 35177 ft | 489 kts | 131° |
| 2026-04-23 11:20 | 35.35692 | -120.79400 | 35157 ft | 489 kts | 131° |
| 2026-04-23 11:20 | 35.31723 | -120.72640 | 35168 ft | 488 kts | 131° |
| 2026-04-23 11:21 | 35.27789 | -120.65925 | 35166 ft | 488 kts | 131° |
| 2026-04-23 11:21 | 35.23836 | -120.59158 | 35173 ft | 488 kts | 131° |
| 2026-04-23 11:22 | 35.19882 | -120.52403 | 35165 ft | 487 kts | 131° |
| 2026-04-23 11:22 | 35.15932 | -120.45681 | 35176 ft | 486 kts | 131° |
| 2026-04-23 11:23 | 35.11980 | -120.38990 | 35187 ft | 485 kts | 132° |
| 2026-04-23 11:23 | 35.08051 | -120.32345 | 35177 ft | 486 kts | 131° |
| 2026-04-23 11:24 | 35.04057 | -120.25704 | 35165 ft | 481 kts | 136° |
| 2026-04-23 11:24 | 34.99981 | -120.19195 | 35174 ft | 485 kts | 131° |
| 2026-04-23 11:25 | 34.96149 | -120.12410 | 35178 ft | 486 kts | 130° |
| 2026-04-23 11:25 | 34.92287 | -120.05658 | 35164 ft | 485 kts | 132° |
| 2026-04-23 11:26 | 34.88355 | -119.99058 | 35148 ft | 484 kts | 133° |
| 2026-04-23 11:26 | 34.84359 | -119.92437 | 35162 ft | 484 kts | 133° |
| 2026-04-23 11:27 | 34.80385 | -119.85817 | 35145 ft | 484 kts | 133° |
| 2026-04-23 11:27 | 34.76424 | -119.79194 | 35133 ft | 484 kts | 133° |
| 2026-04-23 11:28 | 34.72458 | -119.72576 | 35128 ft | 485 kts | 134° |
| 2026-04-23 11:28 | 34.68475 | -119.65952 | 35139 ft | 485 kts | 134° |
| 2026-04-23 11:29 | 34.64521 | -119.59371 | 35149 ft | 485 kts | 134° |
| 2026-04-23 11:29 | 34.60534 | -119.52758 | 35137 ft | 485 kts | 134° |
| 2026-04-23 11:30 | 34.56521 | -119.46152 | 35122 ft | 485 kts | 134° |
| 2026-04-23 11:30 | 34.53199 | -119.40675 | 35116 ft | 485 kts | 134° |
| 2026-04-23 11:31 | 34.48569 | -119.33035 | 35099 ft | 485 kts | 134° |
| 2026-04-23 11:31 | 34.46568 | -119.29739 | 34994 ft | 485 kts | 133° |
| 2026-04-23 11:31 | 34.44595 | -119.26487 | 35083 ft | 483 kts | 135° |
| 2026-04-23 11:32 | 34.41224 | -119.20961 | 35087 ft | 489 kts | 135° |
| 2026-04-23 11:32 | 34.37199 | -119.14369 | 35077 ft | 491 kts | 135° |
| 2026-04-23 11:33 | 34.33146 | -119.07731 | 35075 ft | 490 kts | 135° |
| 2026-04-23 11:33 | 34.29075 | -119.01082 | 35069 ft | 491 kts | 136° |
| 2026-04-23 11:34 | 34.25007 | -118.94452 | 35078 ft | 492 kts | 136° |
| 2026-04-23 11:34 | 34.20914 | -118.87795 | 35062 ft | 494 kts | 136° |
| 2026-04-23 11:35 | 34.16801 | -118.81130 | 35056 ft | 496 kts | 136° |
| 2026-04-23 11:35 | 34.12683 | -118.74452 | 35022 ft | 496 kts | 136° |
| 2026-04-23 11:36 | 34.08559 | -118.67766 | 34993 ft | 496 kts | 137° |
| 2026-04-23 11:36 | 34.06533 | -118.64480 | 34777 ft | 490 kts | 137° |
| 2026-04-23 11:36 | 34.04498 | -118.61185 | 34544 ft | 488 kts | 137° |
| 2026-04-23 11:36 | 34.02475 | -118.57917 | 34117 ft | 486 kts | 137° |
| 2026-04-23 11:37 | 34.00451 | -118.54656 | 33521 ft | 485 kts | 136° |
| 2026-04-23 11:37 | 33.98431 | -118.51407 | 32994 ft | 482 kts | 136° |
| 2026-04-23 11:37 | 33.96426 | -118.48183 | 32425 ft | 480 kts | 136° |
| 2026-04-23 11:37 | 33.94433 | -118.44982 | 31949 ft | 476 kts | 135° |
| 2026-04-23 11:38 | 33.92343 | -118.41922 | 31486 ft | 465 kts | 142° |
| 2026-04-23 11:38 | 33.90173 | -118.39120 | 31067 ft | 461 kts | 142° |
| 2026-04-23 11:38 | 33.87993 | -118.36303 | 30649 ft | 457 kts | 141° |
| 2026-04-23 11:38 | 33.85835 | -118.33509 | 30215 ft | 454 kts | 141° |
| 2026-04-23 11:39 | 33.83691 | -118.30730 | 29749 ft | 451 kts | 141° |
| 2026-04-23 11:39 | 33.81571 | -118.27981 | 29334 ft | 445 kts | 141° |
| 2026-04-23 11:39 | 33.79473 | -118.25269 | 28902 ft | 441 kts | 141° |
| 2026-04-23 11:39 | 33.77391 | -118.22586 | 28546 ft | 436 kts | 141° |
| 2026-04-23 11:40 | 33.75336 | -118.19922 | 28154 ft | 433 kts | 141° |
| 2026-04-23 11:40 | 33.73310 | -118.17261 | 27761 ft | 431 kts | 140° |
| 2026-04-23 11:40 | 33.71299 | -118.14601 | 27364 ft | 429 kts | 140° |
| 2026-04-23 11:40 | 33.69294 | -118.11949 | 26973 ft | 427 kts | 140° |
| 2026-04-23 11:41 | 33.67296 | -118.09315 | 26560 ft | 425 kts | 140° |
| 2026-04-23 11:41 | 33.65301 | -118.06700 | 26164 ft | 424 kts | 140° |
| 2026-04-23 11:41 | 33.63308 | -118.04097 | 25737 ft | 423 kts | 139° |
| 2026-04-23 11:41 | 33.61319 | -118.01502 | 25302 ft | 422 kts | 139° |
| 2026-04-23 11:42 | 33.59335 | -117.98912 | 24885 ft | 421 kts | 139° |
| 2026-04-23 11:42 | 33.57358 | -117.96330 | 24442 ft | 420 kts | 139° |
| 2026-04-23 11:42 | 33.55404 | -117.93780 | 24007 ft | 420 kts | 139° |
| 2026-04-23 11:42 | 33.53391 | -117.91248 | 23558 ft | 418 kts | 140° |
| 2026-04-23 11:43 | 33.51339 | -117.88813 | 23097 ft | 414 kts | 142° |
| 2026-04-23 11:43 | 33.49266 | -117.86441 | 22689 ft | 410 kts | 142° |
| 2026-04-23 11:43 | 33.47192 | -117.84099 | 22232 ft | 407 kts | 142° |
| 2026-04-23 11:43 | 33.45140 | -117.81780 | 21767 ft | 405 kts | 142° |
| 2026-04-23 11:44 | 33.43095 | -117.79469 | 21332 ft | 400 kts | 143° |
| 2026-04-23 11:44 | 33.41052 | -117.77236 | 20890 ft | 397 kts | 144° |
| 2026-04-23 11:44 | 33.38996 | -117.75052 | 20455 ft | 393 kts | 144° |
| 2026-04-23 11:44 | 33.36946 | -117.72897 | 20035 ft | 391 kts | 144° |
| 2026-04-23 11:45 | 33.34911 | -117.70759 | 19614 ft | 388 kts | 144° |
| 2026-04-23 11:45 | 33.32891 | -117.68629 | 19188 ft | 386 kts | 144° |
| 2026-04-23 11:45 | 33.30913 | -117.66534 | 18768 ft | 384 kts | 144° |
| 2026-04-23 11:45 | 33.28921 | -117.64416 | 18337 ft | 382 kts | 143° |
| 2026-04-23 11:46 | 33.26941 | -117.62305 | 17873 ft | 380 kts | 143° |
| 2026-04-23 11:46 | 33.24970 | -117.60202 | 17447 ft | 376 kts | 143° |
| 2026-04-23 11:46 | 33.23018 | -117.58129 | 16943 ft | 376 kts | 143° |
| 2026-04-23 11:46 | 33.21069 | -117.56073 | 16530 ft | 372 kts | 143° |
| 2026-04-23 11:47 | 33.19135 | -117.54040 | 16118 ft | 369 kts | 143° |
| 2026-04-23 11:47 | 33.17206 | -117.52016 | 15714 ft | 366 kts | 143° |
| 2026-04-23 11:47 | 33.15298 | -117.50016 | 15315 ft | 364 kts | 143° |
| 2026-04-23 11:47 | 33.13378 | -117.48078 | 14915 ft | 359 kts | 149° |
| 2026-04-23 11:48 | 33.11338 | -117.46366 | 14406 ft | 359 kts | 150° |
| 2026-04-23 11:48 | 33.09312 | -117.44675 | 13962 ft | 359 kts | 150° |
| 2026-04-23 11:48 | 33.07273 | -117.42976 | 13444 ft | 359 kts | 149° |
| 2026-04-23 11:48 | 33.05241 | -117.41287 | 13095 ft | 353 kts | 149° |
| 2026-04-23 11:49 | 33.03233 | -117.39613 | 12656 ft | 351 kts | 149° |
| 2026-04-23 11:49 | 33.01243 | -117.37948 | 12180 ft | 347 kts | 149° |
| 2026-04-23 11:49 | 32.99275 | -117.36298 | 11472 ft | 344 kts | 148° |
| 2026-04-23 11:49 | 32.97349 | -117.34681 | 10981 ft | 334 kts | 148° |
| 2026-04-23 11:50 | 32.95475 | -117.33107 | 10618 ft | 322 kts | 148° |
| 2026-04-23 11:50 | 32.93698 | -117.31615 | 10446 ft | 304 kts | 148° |
| 2026-04-23 11:50 | 32.91981 | -117.30172 | 10061 ft | 298 kts | 148° |
| 2026-04-23 11:50 | 32.90318 | -117.28781 | 9876 ft | 294 kts | 148° |
| 2026-04-23 11:51 | 32.88619 | -117.27367 | 9624 ft | 295 kts | 148° |
| 2026-04-23 11:51 | 32.86933 | -117.25972 | 9252 ft | 296 kts | 148° |
| 2026-04-23 11:51 | 32.85265 | -117.24595 | 8998 ft | 294 kts | 148° |
| 2026-04-23 11:51 | 32.83586 | -117.23206 | 8622 ft | 295 kts | 147° |
| 2026-04-23 11:52 | 32.82038 | -117.21633 | 8411 ft | 292 kts | 132° |
| 2026-04-23 11:52 | 32.80928 | -117.19637 | 7935 ft | 289 kts | 113° |
| 2026-04-23 11:52 | 32.80316 | -117.17381 | 7422 ft | 285 kts | 102° |
| 2026-04-23 11:52 | 32.79825 | -117.15117 | 6971 ft | 282 kts | 103° |
| 2026-04-23 11:53 | 32.79332 | -117.12887 | 6661 ft | 273 kts | 103° |
| 2026-04-23 11:53 | 32.78858 | -117.10778 | 6477 ft | 257 kts | 103° |
| 2026-04-23 11:53 | 32.78401 | -117.08749 | 6165 ft | 253 kts | 103° |
| 2026-04-23 11:53 | 32.77951 | -117.06735 | 6050 ft | 251 kts | 103° |
| 2026-04-23 11:54 | 32.77489 | -117.04726 | 5835 ft | 252 kts | 104° |
| 2026-04-23 11:54 | 32.77006 | -117.02737 | 5615 ft | 249 kts | 104° |
| 2026-04-23 11:54 | 32.76522 | -117.00773 | 5416 ft | 247 kts | 104° |
| 2026-04-23 11:54 | 32.76042 | -116.98830 | 5218 ft | 242 kts | 104° |
| 2026-04-23 11:55 | 32.75322 | -116.97068 | 4955 ft | 235 kts | 130° |
| 2026-04-23 11:55 | 32.74087 | -116.95891 | 4698 ft | 222 kts | 156° |
| 2026-04-23 11:55 | 32.72681 | -116.95446 | 4438 ft | 207 kts | 180° |
| 2026-04-23 11:55 | 32.71298 | -116.95664 | 4182 ft | 198 kts | 202° |
| 2026-04-23 11:56 | 32.70125 | -116.96448 | 3951 ft | 191 kts | 224° |
| 2026-04-23 11:56 | 32.69296 | -116.97642 | 3727 ft | 185 kts | 244° |
| 2026-04-23 11:56 | 32.68884 | -116.99018 | 3496 ft | 172 kts | 262° |
| 2026-04-23 11:56 | 32.68869 | -117.00400 | 3264 ft | 165 kts | 279° |
| 2026-04-23 11:57 | 32.69158 | -117.01702 | 3081 ft | 157 kts | 287° |
| 2026-04-23 11:57 | 32.69450 | -117.02890 | 2859 ft | 145 kts | 286° |
| 2026-04-23 11:57 | 32.69725 | -117.04015 | 2682 ft | 140 kts | 286° |
| 2026-04-23 11:57 | 32.69994 | -117.05121 | 2508 ft | 139 kts | 285° |
| 2026-04-23 11:58 | 32.70263 | -117.06222 | 2319 ft | 139 kts | 285° |
| 2026-04-23 11:58 | 32.70530 | -117.07323 | 2141 ft | 139 kts | 285° |
| 2026-04-23 11:58 | 32.70799 | -117.08431 | 1950 ft | 139 kts | 286° |
| 2026-04-23 11:58 | 32.71068 | -117.09540 | 1743 ft | 140 kts | 285° |
| 2026-04-23 11:59 | 32.71337 | -117.10647 | 1503 ft | 140 kts | 285° |
| 2026-04-23 11:59 | 32.71609 | -117.11762 | 1281 ft | 141 kts | 285° |
| 2026-04-23 11:59 | 32.71880 | -117.12884 | 1093 ft | 142 kts | 285° |
| 2026-04-23 11:59 | 32.72148 | -117.14018 | 872 ft | 143 kts | 285° |
| 2026-04-23 12:00 | 32.72425 | -117.15151 | 640 ft | 142 kts | 285° |
| 2026-04-23 12:00 | 32.72704 | -117.16273 | 411 ft | 141 kts | 286° |
| 2026-04-23 12:00 | 32.72974 | -117.17376 | 173 ft | 139 kts | 285° |
| 2026-04-23 12:00 | 32.73243 | -117.18491 | 30 ft | 132 kts | 286° |
| 2026-04-23 12:01 | 32.73455 | -117.19371 | 24 ft | 89 kts | 286° |
| 2026-04-23 12:01 | 32.73579 | -117.19879 | 27 ft | 42 kts | 285° |
| 2026-04-23 12:01 | 32.73640 | -117.20141 | 23 ft | 20 kts | 278° |
| 2026-04-23 12:01 | 32.73587 | -117.20212 | 23 ft | 0 kts | 199° |
| 2026-04-23 12:02 | 32.73577 | -117.20227 | 23 ft | 7 kts | 254° |
| 2026-04-23 12:02 | 32.73588 | -117.20343 | 20 ft | 21 kts | 285° |
| 2026-04-23 12:02 | 32.73547 | -117.20464 | 19 ft | 19 kts | 230° |
| 2026-04-23 12:02 | 32.73466 | -117.20549 | 20 ft | 16 kts | 199° |
| 2026-04-23 12:03 | 32.73360 | -117.20556 | 22 ft | 14 kts | 177° |
| 2026-04-23 12:03 | 32.73338 | -117.20503 | 21 ft | 4 kts | 52° |
| 2026-04-23 12:03 | 32.73342 | -117.20475 | 21 ft | 2 kts | 78° |
| 2026-04-23 12:03 | 32.73343 | -117.20469 | 21 ft | 0 kts | 77° |